Time;durP1;ratioP1;P1;durP2;ratioP2;P2;SDS_P1;SDS_P2;PMS_P1;PMS_P2;Temp;Humidity;BMP_temperature;BMP_pressure;BME280_temperature;BME280_humidity;BME280_pressure;Samples;Min_cycle;Max_cycle;Signal;HPM_P1;HPM_P2
2022/09/15 00:00:24;;;;;;;15.07;9.68;;;19.30;99.90;;;;;;4993077;28;20022;-79
2022/09/15 00:02:49;;;;;;;17.58;11.82;;;19.30;99.90;;;;;;4996567;28;20029;-80
2022/09/15 00:05:15;;;;;;;18.17;11.57;;;19.30;99.90;;;;;;4994931;28;20069;-80
2022/09/15 00:07:41;;;;;;;15.85;10.90;;;19.20;99.90;;;;;;5012489;28;20482;-80
2022/09/15 00:10:08;;;;;;;17.58;11.27;;;19.20;99.90;;;;;;4993456;28;20137;-80
2022/09/15 00:12:34;;;;;;;15.35;11.20;;;19.20;99.90;;;;;;5002555;28;20438;-80
2022/09/15 00:15:00;;;;;;;18.00;11.10;;;19.20;99.90;;;;;;4987075;28;20026;-80
2022/09/15 00:17:26;;;;;;;17.95;11.18;;;19.20;99.90;;;;;;4985726;28;20394;-78
2022/09/15 00:19:52;;;;;;;14.43;9.85;;;19.20;99.90;;;;;;5000018;28;20474;-79
2022/09/15 00:22:19;;;;;;;15.70;9.93;;;19.20;99.90;;;;;;5009138;28;20040;-80
2022/09/15 00:24:48;;;;;;;16.35;11.35;;;19.20;99.90;;;;;;5004231;28;20061;-79
2022/09/15 00:27:15;;;;;;;16.35;11.18;;;19.20;99.90;;;;;;5005782;28;20041;-79
2022/09/15 00:29:41;;;;;;;14.05;10.13;;;19.20;99.90;;;;;;5002979;28;20064;-79
2022/09/15 00:32:06;;;;;;;15.20;11.13;;;19.20;99.90;;;;;;4985138;28;20470;-80
2022/09/15 00:34:32;;;;;;;16.80;11.73;;;19.20;99.90;;;;;;5007555;28;20038;-79
2022/09/15 00:36:58;;;;;;;15.45;10.38;;;19.20;99.90;;;;;;5012738;28;20497;-81
2022/09/15 00:39:24;;;;;;;18.35;11.30;;;19.20;99.90;;;;;;4994795;28;20038;-80
2022/09/15 00:41:50;;;;;;;16.48;10.98;;;19.20;99.90;;;;;;5013373;28;20449;-79
2022/09/15 00:44:16;;;;;;;16.42;11.13;;;19.20;99.90;;;;;;4997319;28;20461;-80
2022/09/15 00:46:45;;;;;;;16.42;11.38;;;19.20;99.90;;;;;;5008162;28;20052;-79
2022/09/15 00:49:30;;;;;;;17.58;10.60;;;19.20;99.90;;;;;;4997419;28;20034;-81
2022/09/15 00:52:10;;;;;;;18.58;11.65;;;19.20;99.90;;;;;;4997421;28;20042;-80
2022/09/15 00:54:51;;;;;;;15.57;10.98;;;19.20;99.90;;;;;;4995514;28;20581;-79
2022/09/15 00:57:23;;;;;;;18.50;10.85;;;19.20;99.90;;;;;;5010525;28;20509;-80
2022/09/15 00:59:50;;;;;;;15.45;10.48;;;19.20;99.90;;;;;;5007842;28;20076;-79
2022/09/15 01:02:23;;;;;;;15.23;10.68;;;19.20;99.90;;;;;;5005840;28;20044;-79
2022/09/15 01:04:51;;;;;;;16.02;9.70;;;19.10;99.90;;;;;;5014996;28;20034;-80
2022/09/15 01:07:22;;;;;;;15.15;9.38;;;19.10;99.90;;;;;;4996295;28;20133;-80
2022/09/15 01:09:56;;;;;;;15.25;9.68;;;19.10;99.90;;;;;;4997525;28;20116;-80
2022/09/15 01:12:23;;;;;;;19.38;11.07;;;19.10;99.90;;;;;;4997552;28;20555;-80
2022/09/15 01:14:49;;;;;;;13.32;9.70;;;19.10;99.90;;;;;;4992397;28;20032;-80
2022/09/15 01:17:33;;;;;;;17.65;10.88;;;19.10;99.90;;;;;;4993854;28;20094;-81
2022/09/15 01:20:46;;;;;;;14.25;9.43;;;19.10;99.90;;;;;;5011404;28;20112;-81
2022/09/15 01:23:39;;;;;;;14.60;9.40;;;19.10;99.90;;;;;;4965243;28;20045;-80
2022/09/15 01:26:24;;;;;;;16.13;10.60;;;19.10;99.90;;;;;;5012986;28;20029;-80
2022/09/15 01:29:05;;;;;;;14.93;10.23;;;19.10;99.90;;;;;;5006825;28;20060;-81
2022/09/15 01:35:30;;;;;;;13.50;8.55;;;19.10;99.90;;;;;;5014794;28;20032;-81
2022/09/15 01:38:05;;;;;;;15.38;9.02;;;19.10;99.90;;;;;;4965908;28;20040;-81
2022/09/15 01:40:38;;;;;;;13.43;9.05;;;19.10;99.90;;;;;;5010002;28;20103;-81
2022/09/15 01:43:07;;;;;;;15.02;8.68;;;19.10;99.90;;;;;;5011442;28;20034;-81
2022/09/15 01:45:36;;;;;;;16.77;9.45;;;19.10;99.90;;;;;;5010710;28;20064;-82
2022/09/15 01:48:06;;;;;;;14.27;9.07;;;19.10;99.90;;;;;;4998108;28;20021;-80
2022/09/15 01:50:48;;;;;;;13.45;8.45;;;19.10;99.90;;;;;;4997383;28;20033;-82
2022/09/15 01:53:17;;;;;;;14.05;9.45;;;19.10;99.90;;;;;;5015211;28;20028;-82
2022/09/15 01:56:05;;;;;;;13.20;8.02;;;19.00;99.90;;;;;;4997343;28;20060;-82
2022/09/15 01:58:32;;;;;;;13.20;9.18;;;19.10;99.90;;;;;;4998081;28;20030;-81
2022/09/15 02:01:03;;;;;;;16.33;9.65;;;19.00;99.90;;;;;;5003422;28;20088;-82
2022/09/15 02:03:43;;;;;;;16.88;10.77;;;19.00;99.90;;;;;;4997484;28;20112;-81
2022/09/15 02:06:36;;;;;;;13.63;9.82;;;19.00;99.90;;;;;;4999370;28;20543;-81
2022/09/15 02:09:25;;;;;;;15.82;10.05;;;19.00;99.90;;;;;;5007989;28;20034;-83
2022/09/15 02:12:07;;;;;;;15.35;9.23;;;19.10;99.90;;;;;;5013390;28;20141;-81
2022/09/15 02:14:42;;;;;;;16.65;10.48;;;19.00;99.90;;;;;;5012155;28;20549;-82
2022/09/15 02:17:15;;;;;;;18.33;11.95;;;19.00;99.90;;;;;;4992998;28;20029;-81
2022/09/15 02:19:48;;;;;;;16.38;10.93;;;19.00;99.90;;;;;;4988923;28;20059;-81
2022/09/15 02:22:23;;;;;;;19.98;12.48;;;19.00;99.90;;;;;;5014325;28;20021;-81
2022/09/15 02:25:10;;;;;;;18.27;11.25;;;19.00;99.90;;;;;;5007032;28;20022;-82
2022/09/15 02:27:43;;;;;;;19.52;12.32;;;19.00;99.90;;;;;;5010872;28;20044;-81
2022/09/15 02:30:13;;;;;;;21.35;12.77;;;19.00;99.90;;;;;;4989618;28;20359;-82
2022/09/15 02:32:46;;;;;;;18.17;11.88;;;19.00;99.90;;;;;;4979319;28;20041;-81
2022/09/15 02:35:13;;;;;;;20.17;12.38;;;19.00;99.90;;;;;;5013722;28;20034;-81
2022/09/15 02:37:39;;;;;;;20.08;12.30;;;19.00;99.90;;;;;;5011494;28;20124;-82
2022/09/15 02:40:06;;;;;;;20.13;11.50;;;19.00;99.90;;;;;;5007837;28;20029;-82
2022/09/15 02:42:32;;;;;;;20.13;12.55;;;18.90;99.90;;;;;;4994474;28;20486;-81
2022/09/15 02:44:59;;;;;;;19.30;11.80;;;19.00;99.90;;;;;;5011573;28;20398;-81
2022/09/15 02:47:27;;;;;;;20.42;12.20;;;18.90;99.90;;;;;;5012538;28;20022;-80
2022/09/15 02:49:54;;;;;;;19.48;11.43;;;19.00;99.90;;;;;;5013230;28;20099;-82
2022/09/15 02:52:20;;;;;;;19.52;11.98;;;18.90;99.90;;;;;;5012056;28;20025;-82
2022/09/15 02:54:46;;;;;;;19.55;12.02;;;18.90;99.90;;;;;;5010966;28;20033;-81
2022/09/15 02:57:13;;;;;;;22.05;11.93;;;18.90;99.90;;;;;;4995598;28;20030;-81
2022/09/15 03:02:24;;;;;;;22.63;12.23;;;18.90;99.90;;;;;;5014780;28;20037;-82
2022/09/15 03:04:50;;;;;;;23.77;13.80;;;18.90;99.90;;;;;;4998025;28;20465;-81
2022/09/15 03:07:19;;;;;;;23.88;14.18;;;18.90;99.90;;;;;;4998533;28;20033;-82
2022/09/15 03:09:45;;;;;;;29.10;15.93;;;18.90;99.90;;;;;;4993519;28;20034;-82
2022/09/15 03:12:11;;;;;;;25.48;14.25;;;18.90;99.90;;;;;;4995075;28;20028;-80
2022/09/15 03:14:37;;;;;;;28.50;15.70;;;18.90;99.90;;;;;;5011599;28;20021;-81
2022/09/15 03:17:03;;;;;;;29.90;16.38;;;18.90;99.90;;;;;;4996471;28;20442;-80
2022/09/15 03:19:30;;;;;;;29.67;16.27;;;18.90;99.90;;;;;;5012862;28;20037;-80
2022/09/15 03:21:56;;;;;;;27.35;14.52;;;18.90;99.90;;;;;;5011603;28;20056;-82
2022/09/15 03:24:22;;;;;;;25.40;15.27;;;18.90;99.90;;;;;;5011058;28;20030;-82
2022/09/15 03:26:48;;;;;;;28.50;15.50;;;18.90;99.90;;;;;;5011447;28;20387;-80
2022/09/15 03:29:14;;;;;;;29.25;16.73;;;18.90;99.90;;;;;;5010243;28;20037;-82
2022/09/15 03:31:43;;;;;;;27.15;16.10;;;18.90;99.90;;;;;;5001860;28;20026;-82
2022/09/15 03:34:09;;;;;;;26.42;16.05;;;18.90;99.90;;;;;;4990310;28;20030;-82
2022/09/15 03:36:35;;;;;;;26.15;16.00;;;18.90;99.90;;;;;;4995334;28;20014;-83
2022/09/15 03:39:00;;;;;;;34.65;18.80;;;18.80;99.90;;;;;;5013047;28;20050;-81
2022/09/15 03:41:28;;;;;;;31.92;17.55;;;18.90;99.90;;;;;;5013378;28;20485;-81
2022/09/15 03:43:54;;;;;;;33.22;18.00;;;18.80;99.90;;;;;;4996763;28;20021;-82
2022/09/15 03:46:20;;;;;;;36.95;18.75;;;18.90;99.90;;;;;;5013914;28;20052;-82
2022/09/15 03:48:46;;;;;;;34.65;19.42;;;18.80;99.90;;;;;;5011231;28;20579;-82
2022/09/15 03:51:12;;;;;;;33.70;18.83;;;18.80;99.90;;;;;;4997453;28;20029;-82
2022/09/15 03:53:40;;;;;;;35.97;19.50;;;18.80;99.90;;;;;;5001622;28;20035;-82
2022/09/15 03:56:32;;;;;;;35.67;18.02;;;18.80;99.90;;;;;;5014271;28;20022;-82
2022/09/15 03:59:00;;;;;;;34.25;18.50;;;18.80;99.90;;;;;;4997523;28;20026;-82
2022/09/15 04:01:26;;;;;;;34.00;18.10;;;18.80;99.90;;;;;;4999022;28;20030;-82
2022/09/15 04:03:53;;;;;;;34.65;18.05;;;18.80;99.90;;;;;;5013477;28;20028;-81
2022/09/15 04:06:21;;;;;;;33.53;18.65;;;18.80;99.90;;;;;;5008116;28;20030;-82
2022/09/15 04:08:48;;;;;;;36.97;19.48;;;18.80;99.90;;;;;;5008553;28;20049;-82
2022/09/15 04:11:14;;;;;;;33.97;19.52;;;18.80;99.90;;;;;;4995099;28;20029;-82
2022/09/15 04:13:41;;;;;;;32.80;18.95;;;18.80;99.90;;;;;;4999218;28;20054;-82
2022/09/15 04:16:18;;;;;;;35.63;18.98;;;18.80;99.90;;;;;;5012266;28;20030;-81
2022/09/15 04:18:44;;;;;;;34.75;18.67;;;18.80;99.90;;;;;;5014320;28;20048;-82
2022/09/15 04:21:13;;;;;;;33.08;18.17;;;18.80;99.90;;;;;;4999188;28;20026;-82
2022/09/15 04:23:40;;;;;;;37.60;20.20;;;18.80;99.90;;;;;;4998806;28;20030;-81
2022/09/15 04:26:08;;;;;;;32.80;19.33;;;18.80;99.90;;;;;;4990511;28;20029;-80
2022/09/15 04:28:36;;;;;;;34.38;19.60;;;18.80;99.90;;;;;;5013530;28;20117;-81
2022/09/15 04:31:08;;;;;;;31.88;19.65;;;18.70;99.90;;;;;;5000448;28;20470;-82
2022/09/15 04:33:34;;;;;;;34.13;19.50;;;18.70;99.90;;;;;;5013241;28;20018;-81
2022/09/15 04:36:02;;;;;;;33.67;19.45;;;18.80;99.90;;;;;;5010846;28;20225;-82
2022/09/15 04:38:28;;;;;;;36.53;19.20;;;18.70;99.90;;;;;;5013240;28;20022;-82
2022/09/15 04:40:54;;;;;;;31.98;18.55;;;18.80;99.90;;;;;;4995002;28;20292;-81
2022/09/15 04:43:21;;;;;;;35.53;19.25;;;18.70;99.90;;;;;;4995629;28;20080;-80
2022/09/15 04:45:47;;;;;;;34.65;18.23;;;18.70;99.90;;;;;;5005213;28;20037;-82
2022/09/15 04:48:13;;;;;;;37.80;20.05;;;18.70;99.90;;;;;;4994369;28;20387;-81
2022/09/15 04:50:39;;;;;;;34.30;19.70;;;18.70;99.90;;;;;;5013007;28;20022;-80
2022/09/15 04:53:06;;;;;;;37.47;20.52;;;18.70;99.90;;;;;;5013768;28;20038;-81
2022/09/15 04:55:32;;;;;;;38.05;20.65;;;18.70;99.90;;;;;;5011288;28;20088;-80
2022/09/15 04:57:59;;;;;;;40.58;21.25;;;18.70;99.90;;;;;;4993958;28;20029;-80
2022/09/15 05:00:25;;;;;;;41.40;22.15;;;18.70;99.90;;;;;;5014116;28;20042;-82
2022/09/15 05:02:52;;;;;;;36.83;20.08;;;18.70;99.90;;;;;;4996625;28;20398;-80
2022/09/15 05:05:18;;;;;;;37.17;19.35;;;18.70;99.90;;;;;;5014510;28;20037;-81
2022/09/15 05:07:46;;;;;;;38.53;20.88;;;18.70;99.90;;;;;;5012283;28;20026;-82
2022/09/15 05:10:13;;;;;;;37.60;19.10;;;18.70;99.90;;;;;;5014894;28;20389;-80
2022/09/15 05:12:38;;;;;;;38.75;20.88;;;18.60;99.90;;;;;;5010162;28;20033;-81
2022/09/15 05:15:05;;;;;;;37.95;20.10;;;18.70;99.90;;;;;;4990658;28;20424;-81
2022/09/15 05:17:31;;;;;;;37.25;20.58;;;18.70;99.90;;;;;;4996239;28;20710;-81
2022/09/15 05:19:58;;;;;;;36.10;19.58;;;18.60;99.90;;;;;;5004226;28;20601;-82
2022/09/15 05:22:24;;;;;;;36.00;20.73;;;18.60;99.90;;;;;;4990924;28;20120;-82
2022/09/15 05:24:50;;;;;;;39.35;20.48;;;18.60;99.90;;;;;;5014187;28;20025;-80
2022/09/15 05:27:16;;;;;;;33.13;19.33;;;18.60;99.90;;;;;;4998330;28;20045;-81
2022/09/15 05:29:41;;;;;;;35.47;20.17;;;18.60;99.90;;;;;;5015146;28;20026;-82
2022/09/15 05:32:08;;;;;;;39.72;20.73;;;18.70;99.90;;;;;;4997151;28;20041;-81
2022/09/15 05:34:34;;;;;;;37.70;20.50;;;18.60;99.90;;;;;;4995876;28;20112;-82
2022/09/15 05:37:00;;;;;;;35.88;18.95;;;18.60;99.90;;;;;;5079459;22;20041;-87
2022/09/15 05:39:25;;;;;;;37.90;19.10;;;18.70;99.90;;;;;;5054536;28;20502;-86
2022/09/15 05:41:51;;;;;;;31.48;18.13;;;18.60;99.90;;;;;;5050105;28;20025;-86
2022/09/15 05:44:17;;;;;;;34.53;19.08;;;18.70;99.90;;;;;;5051808;28;20025;-86
2022/09/15 05:46:42;;;;;;;34.65;19.48;;;18.60;99.90;;;;;;5045468;28;20429;-86
2022/09/15 05:49:08;;;;;;;38.83;21.10;;;18.60;99.90;;;;;;5052709;28;20036;-86
2022/09/15 05:51:34;;;;;;;37.95;21.10;;;18.60;99.90;;;;;;5048193;28;20044;-86
2022/09/15 05:53:59;;;;;;;35.58;19.92;;;18.70;99.90;;;;;;5053548;28;20028;-86
2022/09/15 05:56:25;;;;;;;37.13;19.58;;;18.60;99.90;;;;;;5069216;28;20017;-86
2022/09/15 05:58:51;;;;;;;33.88;18.02;;;18.60;99.90;;;;;;5061582;28;20021;-86
2022/09/15 06:01:23;;;;;;;37.30;19.10;;;18.60;99.90;;;;;;5052077;28;20020;-86
2022/09/15 06:03:49;;;;;;;39.10;20.33;;;18.60;99.90;;;;;;5065460;28;20016;-86
2022/09/15 06:06:15;;;;;;;33.83;17.88;;;18.60;99.90;;;;;;5053531;28;20538;-86
2022/09/15 06:08:43;;;;;;;31.90;18.35;;;18.60;99.90;;;;;;5053004;28;20036;-86
2022/09/15 06:11:14;;;;;;;33.45;17.98;;;18.60;99.90;;;;;;5051999;28;20062;-86
2022/09/15 06:13:41;;;;;;;35.50;18.67;;;18.60;99.90;;;;;;5053432;28;20031;-86
2022/09/15 06:16:09;;;;;;;38.53;19.80;;;18.60;99.90;;;;;;5072785;28;20133;-86
2022/09/15 06:18:36;;;;;;;28.80;16.75;;;18.60;99.90;;;;;;5052055;28;20020;-86
2022/09/15 06:21:06;;;;;;;34.08;18.17;;;18.60;99.90;;;;;;5070027;28;20476;-86
2022/09/15 06:23:32;;;;;;;32.25;19.10;;;18.60;99.90;;;;;;5069101;28;20496;-86
2022/09/15 06:26:04;;;;;;;32.92;17.67;;;18.60;99.90;;;;;;5053151;28;20027;-86
2022/09/15 06:28:29;;;;;;;36.53;19.05;;;18.60;99.90;;;;;;5041804;28;20384;-86
2022/09/15 06:30:55;;;;;;;36.35;18.08;;;18.60;99.90;;;;;;5052450;28;20084;-86
2022/09/15 06:33:20;;;;;;;35.65;18.75;;;18.60;99.90;;;;;;5065128;28;20047;-86
2022/09/15 06:35:46;;;;;;;34.63;18.77;;;18.60;99.90;;;;;;5051820;28;20480;-86
2022/09/15 06:38:12;;;;;;;34.53;18.13;;;18.60;99.90;;;;;;5052851;28;20028;-86
2022/09/15 06:40:37;;;;;;;31.60;17.88;;;18.60;99.90;;;;;;5070431;28;20044;-86
2022/09/15 06:43:03;;;;;;;34.40;18.67;;;18.60;99.90;;;;;;5041019;28;20436;-86
2022/09/15 06:45:29;;;;;;;31.80;17.17;;;18.60;99.90;;;;;;5043309;28;20032;-86
2022/09/15 06:47:55;;;;;;;27.70;16.45;;;18.60;99.90;;;;;;5070595;28;20031;-86
2022/09/15 06:50:20;;;;;;;28.65;16.27;;;18.60;99.90;;;;;;5032238;28;20067;-86
2022/09/15 06:52:46;;;;;;;27.25;15.05;;;18.60;99.90;;;;;;5050633;28;20025;-86
2022/09/15 06:55:11;;;;;;;28.92;16.35;;;18.50;99.90;;;;;;5068885;28;20490;-86
2022/09/15 06:57:37;;;;;;;30.10;17.05;;;18.60;99.90;;;;;;5066065;28;20025;-86
2022/09/15 07:00:05;;;;;;;30.33;16.33;;;18.50;99.90;;;;;;5051257;28;20016;-87
2022/09/15 07:02:30;;;;;;;32.13;15.82;;;18.60;99.90;;;;;;5051620;28;20234;-86
2022/09/15 07:04:56;;;;;;;31.02;16.67;;;18.60;99.90;;;;;;5062606;28;20513;-86
2022/09/15 07:07:22;;;;;;;25.25;15.85;;;18.50;99.90;;;;;;5049319;28;20033;-87
2022/09/15 07:09:48;;;;;;;24.90;13.90;;;18.60;99.90;;;;;;5049753;28;20025;-86
2022/09/15 07:12:13;;;;;;;23.42;14.85;;;18.50;99.90;;;;;;5069872;28;20415;-86
2022/09/15 07:14:39;;;;;;;29.58;17.20;;;18.60;99.90;;;;;;5051531;28;20024;-86
2022/09/15 07:17:05;;;;;;;28.98;15.60;;;18.50;99.90;;;;;;5051532;28;20035;-87
2022/09/15 07:19:30;;;;;;;26.92;16.00;;;18.60;99.90;;;;;;5064850;28;20132;-86
2022/09/15 07:21:56;;;;;;;25.98;16.02;;;18.50;99.90;;;;;;5063575;28;20058;-86
2022/09/15 07:24:22;;;;;;;25.58;16.23;;;18.50;99.90;;;;;;5050195;28;20519;-86
2022/09/15 07:26:47;;;;;;;24.33;15.07;;;18.50;99.90;;;;;;5051540;28;20085;-86
2022/09/15 07:29:13;;;;;;;32.13;15.77;;;18.50;99.90;;;;;;5069893;28;20031;-87
2022/09/15 07:31:39;;;;;;;24.60;15.43;;;18.50;99.90;;;;;;5051984;28;20051;-86
2022/09/15 07:34:06;;;;;;;27.45;17.60;;;18.50;99.90;;;;;;5067156;28;20444;-86
2022/09/15 07:36:31;;;;;;;25.65;15.65;;;18.50;99.90;;;;;;5042184;28;20044;-86
2022/09/15 07:38:57;;;;;;;30.35;17.73;;;18.50;99.90;;;;;;5046936;28;20150;-86
2022/09/15 07:41:28;;;;;;;27.20;17.17;;;18.50;99.90;;;;;;5051614;28;20063;-86
2022/09/15 07:43:56;;;;;;;29.92;18.50;;;18.50;99.90;;;;;;5048133;28;20029;-86
2022/09/15 07:46:23;;;;;;;30.75;18.42;;;18.50;99.90;;;;;;5057732;28;20483;-87
2022/09/15 07:48:51;;;;;;;33.60;18.92;;;18.50;99.90;;;;;;5075052;28;20028;-86
2022/09/15 07:51:18;;;;;;;33.80;20.40;;;18.50;99.90;;;;;;5035238;28;20148;-86
2022/09/15 07:53:45;;;;;;;34.85;20.75;;;18.50;99.90;;;;;;5054757;28;20031;-86
2022/09/15 07:56:11;;;;;;;34.60;20.27;;;18.50;99.90;;;;;;5052182;28;20111;-87
2022/09/15 07:58:37;;;;;;;35.25;20.92;;;18.50;99.90;;;;;;5056068;28;20052;-86
2022/09/15 08:01:13;;;;;;;35.25;20.33;;;18.50;99.90;;;;;;5072812;28;20370;-86
2022/09/15 08:03:41;;;;;;;32.28;20.05;;;18.40;99.90;;;;;;5054695;28;20024;-86
2022/09/15 08:06:08;;;;;;;35.50;21.42;;;18.50;99.90;;;;;;5068449;28;20097;-87
2022/09/15 08:08:35;;;;;;;37.60;21.40;;;18.50;99.90;;;;;;5061374;28;20028;-86
2022/09/15 08:11:08;;;;;;;32.67;19.95;;;18.50;99.90;;;;;;5074175;28;20020;-86
2022/09/15 08:13:34;;;;;;;36.25;21.85;;;18.50;99.90;;;;;;5052429;28;20054;-86
2022/09/15 08:16:12;;;;;;;32.45;20.45;;;18.50;99.90;;;;;;5073186;28;20099;-86
2022/09/15 08:18:38;;;;;;;33.03;21.00;;;18.50;99.90;;;;;;5061620;28;20025;-87
2022/09/15 08:21:10;;;;;;;32.03;20.70;;;18.50;99.90;;;;;;5054723;28;20024;-86
2022/09/15 08:23:36;;;;;;;33.03;19.75;;;18.50;99.90;;;;;;5051923;28;20113;-86
2022/09/15 08:26:05;;;;;;;32.85;21.17;;;18.40;99.90;;;;;;5052782;28;20082;-86
2022/09/15 08:28:31;;;;;;;34.10;19.60;;;18.40;99.90;;;;;;5064230;28;20029;-86
2022/09/15 08:30:59;;;;;;;28.58;18.70;;;18.40;99.90;;;;;;5054090;28;20036;-87
2022/09/15 08:33:25;;;;;;;34.63;20.42;;;18.40;99.90;;;;;;5051288;28;20516;-86
2022/09/15 08:35:50;;;;;;;30.85;20.05;;;18.40;99.90;;;;;;5061206;28;20028;-86
2022/09/15 08:38:16;;;;;;;29.55;19.75;;;18.40;99.90;;;;;;5054595;28;20465;-86
2022/09/15 08:40:44;;;;;;;32.97;20.85;;;18.40;99.90;;;;;;5046971;28;20036;-86
2022/09/15 08:43:25;;;;;;;30.70;19.52;;;18.40;99.90;;;;;;5049033;28;20059;-85
2022/09/15 08:46:15;;;;;;;30.20;19.25;;;18.40;99.90;;;;;;5066996;28;20488;-85
2022/09/15 08:49:15;;;;;;;29.85;18.67;;;18.40;99.90;;;;;;5065526;28;20102;-85
2022/09/15 08:51:46;;;;;;;28.50;19.15;;;18.40;99.90;;;;;;4991367;28;20051;-85
2022/09/15 08:54:27;;;;;;;30.30;18.98;;;18.40;99.90;;;;;;5053303;28;20029;-85
2022/09/15 08:56:56;;;;;;;29.25;17.42;;;18.40;99.90;;;;;;5070785;28;20054;-85
2022/09/15 08:59:23;;;;;;;31.35;19.55;;;18.40;99.90;;;;;;5072019;28;20469;-85
2022/09/15 09:02:13;;;;;;;29.98;19.45;;;18.40;99.90;;;;;;5068444;28;20024;-84
2022/09/15 09:05:09;;;;;;;31.48;19.50;;;18.40;99.90;;;;;;5050876;28;20033;-84
2022/09/15 09:07:50;;;;;;;27.58;19.05;;;18.40;99.90;;;;;;5052499;28;20040;-82
2022/09/15 09:10:29;;;;;;;27.80;19.08;;;18.40;99.90;;;;;;5071151;28;20032;-84
2022/09/15 09:13:24;;;;;;;29.92;19.00;;;18.40;99.90;;;;;;5066238;28;20453;-83
2022/09/15 09:16:18;;;;;;;25.92;17.92;;;18.40;99.90;;;;;;5045839;28;20044;-84
2022/09/15 09:18:56;;;;;;;25.77;17.50;;;18.40;99.90;;;;;;5037768;28;20029;-84
2022/09/15 09:21:29;;;;;;;27.02;17.73;;;18.40;99.90;;;;;;5048281;28;20447;-84
2022/09/15 09:24:02;;;;;;;27.10;17.60;;;18.40;99.90;;;;;;5059085;28;20024;-84
2022/09/15 09:26:30;;;;;;;27.38;17.60;;;18.40;99.90;;;;;;5055290;28;20032;-83
2022/09/15 09:29:12;;;;;;;24.13;17.02;;;18.40;99.90;;;;;;5051896;28;20021;-83
2022/09/15 09:31:40;;;;;;;27.70;17.10;;;18.40;99.90;;;;;;5048982;28;20170;-82
2022/09/15 09:34:14;;;;;;;29.83;17.80;;;18.40;99.90;;;;;;5044655;28;20028;-82
2022/09/15 09:36:41;;;;;;;23.67;16.38;;;18.40;99.90;;;;;;5048533;28;20021;-83
2022/09/15 09:39:11;;;;;;;24.27;17.05;;;18.40;99.90;;;;;;5066994;28;20036;-83
2022/09/15 09:41:39;;;;;;;25.30;17.63;;;18.40;99.90;;;;;;5043624;28;20119;-83
2022/09/15 09:44:11;;;;;;;27.83;16.70;;;18.40;99.90;;;;;;5046286;28;20472;-83
2022/09/15 09:46:37;;;;;;;23.80;16.23;;;18.40;99.90;;;;;;5040913;28;20390;-82
2022/09/15 09:49:28;;;;;;;19.88;15.23;;;18.40;99.90;;;;;;5044422;28;20028;-83
2022/09/15 09:52:02;;;;;;;19.60;13.35;;;18.40;99.90;;;;;;5040923;28;20044;-87
2022/09/15 09:54:30;;;;;;;21.03;13.77;;;18.30;99.90;;;;;;5062143;28;20059;-88
2022/09/15 09:57:11;;;;;;;23.00;14.77;;;18.30;99.90;;;;;;5043160;28;20028;-87
2022/09/15 09:59:45;;;;;;;24.08;16.17;;;18.40;99.90;;;;;;5064960;28;20024;-88
2022/09/15 10:02:11;;;;;;;23.63;15.30;;;18.40;99.90;;;;;;5058977;28;20028;-88
2022/09/15 10:04:38;;;;;;;22.52;14.95;;;18.40;99.90;;;;;;5061877;28;20397;-88
2022/09/15 10:07:04;;;;;;;22.83;15.52;;;18.40;99.90;;;;;;5067692;28;20500;-88
2022/09/15 10:09:30;;;;;;;24.85;14.88;;;18.30;99.90;;;;;;5066482;28;20028;-87
2022/09/15 10:11:59;;;;;;;21.38;14.95;;;18.30;99.90;;;;;;5047196;28;20024;-87
2022/09/15 10:14:32;;;;;;;23.73;14.85;;;18.40;99.90;;;;;;5048187;28;20053;-92
2022/09/15 10:17:03;;;;;;;16.67;10.68;;;18.40;99.90;;;;;;5057328;28;20504;-87
2022/09/15 10:19:32;;;;;;;21.27;13.85;;;18.20;99.90;;;;;;5061764;28;20024;-87
2022/09/15 10:21:59;;;;;;;17.05;12.48;;;18.30;99.90;;;;;;5060770;28;20395;-87
2022/09/15 10:24:40;;;;;;;18.92;11.75;;;18.30;99.90;;;;;;5052496;28;20127;-85
2022/09/15 10:27:31;;;;;;;15.35;10.52;;;18.30;99.90;;;;;;5090258;27;21147;-78
2022/09/15 10:30:12;;;;;;;14.55;10.48;;;18.40;99.90;;;;;;5087711;28;20400;-77
2022/09/15 10:32:39;;;;;;;13.20;9.07;;;18.60;99.90;;;;;;5082100;28;20021;-77
2022/09/15 10:35:19;;;;;;;13.63;8.55;;;18.70;99.90;;;;;;5081114;28;20044;-78
2022/09/15 10:37:45;;;;;;;11.65;8.45;;;18.80;99.90;;;;;;5073683;28;20041;-75
2022/09/15 10:40:45;;;;;;;12.52;7.82;;;19.00;99.90;;;;;;5075672;28;20021;-75
2022/09/15 10:43:48;;;;;;;11.45;7.75;;;19.10;99.90;;;;;;5088452;28;20048;-75
2022/09/15 10:46:27;;;;;;;11.50;6.32;;;19.20;99.90;;;;;;5066338;28;20021;-75
2022/09/15 10:48:58;;;;;;;10.48;6.53;;;19.20;99.90;;;;;;5082297;28;20070;-75
2022/09/15 10:51:36;;;;;;;8.63;6.28;;;19.30;99.90;;;;;;5036989;28;20059;-76
2022/09/15 10:54:27;;;;;;;9.18;6.95;;;19.30;99.90;;;;;;5045389;28;20488;-75
2022/09/15 10:57:09;;;;;;;9.80;6.68;;;19.40;99.90;;;;;;5035981;28;20032;-75
2022/09/15 10:59:48;;;;;;;7.63;6.28;;;19.50;99.90;;;;;;5051926;28;20393;-75
2022/09/15 11:02:42;;;;;;;7.90;5.80;;;19.50;99.90;;;;;;5049927;28;20036;-75
2022/09/15 11:05:23;;;;;;;8.63;5.88;;;19.50;99.90;;;;;;5041090;28;20036;-76
2022/09/15 11:08:20;;;;;;;7.85;6.10;;;19.60;99.90;;;;;;5043791;28;20053;-76
2022/09/15 11:11:13;;;;;;;7.68;5.65;;;19.60;99.90;;;;;;5026718;28;20025;-76
2022/09/15 11:13:55;;;;;;;8.55;5.85;;;19.60;99.90;;;;;;5032623;28;20028;-76
2022/09/15 11:16:45;;;;;;;8.70;5.40;;;19.60;99.90;;;;;;5036589;28;20060;-76
2022/09/15 11:19:34;;;;;;;9.63;6.10;;;19.60;99.90;;;;;;5042356;28;20436;-75
2022/09/15 11:22:14;;;;;;;7.57;5.90;;;19.60;99.90;;;;;;5031162;28;20029;-75
2022/09/15 11:24:43;;;;;;;7.95;6.25;;;19.60;99.90;;;;;;5043761;28;20108;-75
2022/09/15 11:27:39;;;;;;;14.18;6.70;;;19.60;99.90;;;;;;5038662;28;20033;-75
2022/09/15 11:30:23;;;;;;;7.93;6.10;;;19.60;99.90;;;;;;5037932;28;20374;-75
2022/09/15 11:32:55;;;;;;;10.52;6.43;;;19.60;99.90;;;;;;5037441;28;20021;-75
2022/09/15 11:35:43;;;;;;;8.93;6.05;;;19.60;99.90;;;;;;5043055;28;20055;-75
2022/09/15 11:38:47;;;;;;;8.35;6.40;;;19.60;99.90;;;;;;5025098;28;20083;-75
2022/09/15 11:41:21;;;;;;;7.45;6.00;;;19.50;99.90;;;;;;5029520;28;20025;-76
2022/09/15 11:44:21;;;;;;;9.55;6.60;;;19.50;99.90;;;;;;5028959;28;20029;-76
2022/09/15 11:47:01;;;;;;;9.73;6.10;;;19.50;99.90;;;;;;5025464;28;20124;-77
2022/09/15 11:49:34;;;;;;;8.52;6.18;;;19.50;99.90;;;;;;5028421;28;20037;-75
2022/09/15 11:52:28;;;;;;;5.93;5.32;;;19.50;99.90;;;;;;5033712;22;20064;-86
2022/09/15 11:55:14;;;;;;;7.80;6.45;;;19.50;99.90;;;;;;5019165;28;20032;-86
2022/09/15 11:57:49;;;;;;;9.60;5.80;;;19.50;99.90;;;;;;5027152;28;20505;-87
2022/09/15 12:00:15;;;;;;;7.45;6.00;;;19.40;99.90;;;;;;5028214;28;20525;-87
2022/09/15 12:03:18;;;;;;;7.82;5.85;;;19.50;99.90;;;;;;5034394;28;20025;-87
2022/09/15 12:06:18;;;;;;;10.23;5.47;;;19.50;99.90;;;;;;4993676;28;20031;-87
2022/09/15 12:08:56;;;;;;;7.22;6.00;;;19.40;99.90;;;;;;5005152;28;20031;-86
2022/09/15 12:11:26;;;;;;;7.05;5.15;;;19.40;99.90;;;;;;5003794;28;20412;-87
2022/09/15 12:13:53;;;;;;;8.05;5.47;;;19.40;99.90;;;;;;5002035;28;20109;-87
2022/09/15 12:16:20;;;;;;;9.55;5.32;;;19.40;99.90;;;;;;5017322;28;20030;-88
2022/09/15 12:19:03;;;;;;;8.35;5.38;;;19.40;99.90;;;;;;5007183;28;20050;-87
2022/09/15 12:21:44;;;;;;;7.95;5.15;;;19.50;99.90;;;;;;5019623;28;20029;-86
2022/09/15 12:24:22;;;;;;;10.20;5.03;;;19.50;99.90;;;;;;5028472;28;20546;-86
2022/09/15 12:26:48;;;;;;;6.00;4.75;;;19.50;99.90;;;;;;5011014;28;20061;-86
2022/09/15 12:29:26;;;;;;;6.72;4.57;;;19.50;99.90;;;;;;4999806;28;20518;-86
2022/09/15 12:32:18;;;;;;;7.47;4.18;;;19.50;99.90;;;;;;5008093;28;20079;-86
2022/09/15 12:35:19;;;;;;;9.85;5.00;;;19.50;99.90;;;;;;5015944;28;20430;-87
2022/09/15 12:37:47;;;;;;;6.85;4.68;;;19.50;99.90;;;;;;4982722;28;20042;-86
2022/09/15 12:40:34;;;;;;;6.00;4.40;;;19.40;99.90;;;;;;4996987;28;20022;-86
2022/09/15 12:43:15;;;;;;;5.85;3.97;;;19.40;99.90;;;;;;5004076;28;20044;-87
2022/09/15 12:45:51;;;;;;;5.22;4.13;;;19.40;99.90;;;;;;5005614;28;20025;-87
2022/09/15 12:48:21;;;;;;;10.85;4.43;;;19.40;99.90;;;;;;5005936;28;20451;-87
2022/09/15 12:50:57;;;;;;;4.75;3.67;;;19.40;99.90;;;;;;4990972;28;20113;-87
2022/09/15 12:53:29;;;;;;;7.13;4.00;;;19.40;99.90;;;;;;5012660;28;20029;-87
2022/09/15 12:56:07;;;;;;;5.20;3.80;;;19.40;99.90;;;;;;4971362;28;20041;-87
2022/09/15 12:58:45;;;;;;;6.85;3.28;;;19.30;99.90;;;;;;5021161;28;20642;-86
2022/09/15 13:01:25;;;;;;;4.10;3.50;;;19.30;99.90;;;;;;5009714;28;20049;-86